createdAt,value
2022-10-04T00:01:54.510Z,4.07
2022-10-04T00:04:28.711Z,5.82
2022-10-04T00:07:01.934Z,5.68
2022-10-04T00:09:36.321Z,5.07
2022-10-04T00:12:07.532Z,4.22
2022-10-04T00:14:40.198Z,3.33
2022-10-04T00:17:13.624Z,6.07
2022-10-04T00:19:45.753Z,6.63
2022-10-04T00:22:22.687Z,3.97
2022-10-04T00:25:18.777Z,6.80
2022-10-04T00:28:28.702Z,4.72
2022-10-04T00:31:14.939Z,6.88
2022-10-04T00:33:44.794Z,3.90
2022-10-04T00:36:52.384Z,5.45
2022-10-04T00:39:39.980Z,3.42
2022-10-04T00:42:50.274Z,4.75
2022-10-04T00:45:28.654Z,6.75
2022-10-04T00:48:16.166Z,3.15
2022-10-04T00:50:50.401Z,2.70
2022-10-04T00:53:25.011Z,4.22
2022-10-04T00:55:57.142Z,6.07
2022-10-04T00:58:28.571Z,7.45
2022-10-04T01:03:31.806Z,4.90
2022-10-04T01:06:05.488Z,2.78
2022-10-04T01:08:35.912Z,3.17
2022-10-04T01:11:08.078Z,7.82
2022-10-04T01:13:41.108Z,3.65
2022-10-04T01:16:17.142Z,5.70
2022-10-04T01:18:46.033Z,5.25
2022-10-04T01:21:27.291Z,5.45
2022-10-04T01:24:17.747Z,6.32
2022-10-04T01:26:47.551Z,4.80
2022-10-04T01:29:18.674Z,5.20
2022-10-04T01:31:48.660Z,4.57
2022-10-04T01:34:19.265Z,4.90
2022-10-04T01:36:49.355Z,8.43
2022-10-04T01:39:20.850Z,6.03
2022-10-04T01:44:29.913Z,2.10
2022-10-04T01:47:02.941Z,4.88
2022-10-04T01:49:35.651Z,5.82
2022-10-04T01:52:08.653Z,3.30
2022-10-04T01:54:43.699Z,7.75
2022-10-04T01:57:17.382Z,6.40
2022-10-04T01:59:51.633Z,7.32
2022-10-04T02:02:26.633Z,2.60
2022-10-04T02:04:59.185Z,5.90
2022-10-04T02:07:32.575Z,2.70
2022-10-04T02:10:06.358Z,3.92
2022-10-04T02:12:36.026Z,3.20
2022-10-04T02:15:07.998Z,1.85
2022-10-04T02:17:43.134Z,10.35
2022-10-04T02:20:16.436Z,4.38
2022-10-04T02:22:46.413Z,6.53
2022-10-04T02:25:17.289Z,4.97
2022-10-04T02:27:45.641Z,3.22
2022-10-04T02:30:14.843Z,2.10
2022-10-04T02:33:00.044Z,2.15
2022-10-04T02:35:31.097Z,3.58
2022-10-04T02:38:11.032Z,2.75
2022-10-04T02:40:46.674Z,2.45
2022-10-04T02:43:20.083Z,2.58
2022-10-04T02:45:51.977Z,2.33
2022-10-04T02:48:36.855Z,5.30
2022-10-04T02:51:18.828Z,1.95
2022-10-04T02:53:53.677Z,4.47
2022-10-04T02:56:25.318Z,3.28
2022-10-04T02:58:54.561Z,3.97
2022-10-04T03:01:28.577Z,6.20
2022-10-04T03:03:58.372Z,3.30
2022-10-04T03:06:33.158Z,4.00
2022-10-04T03:09:04.514Z,7.30
2022-10-04T03:11:37.309Z,4.38
2022-10-04T03:14:10.545Z,0.95
2022-10-04T03:16:41.965Z,2.40
2022-10-04T03:21:41.752Z,3.15
2022-10-04T03:24:15.589Z,3.08
2022-10-04T03:26:47.945Z,3.38
2022-10-04T03:29:19.309Z,3.42
2022-10-04T03:31:50.526Z,2.13
2022-10-04T03:34:21.961Z,2.40
2022-10-04T03:36:52.357Z,5.13
2022-10-04T03:39:28.913Z,4.22
2022-10-04T03:41:59.142Z,1.00
2022-10-04T03:44:27.639Z,3.92
2022-10-04T03:46:56.280Z,1.48
2022-10-04T03:49:34.185Z,7.85
2022-10-04T03:52:04.240Z,2.75
2022-10-04T03:54:33.859Z,6.28
2022-10-04T03:57:04.067Z,7.57
2022-10-04T03:59:32.257Z,4.45
2022-10-04T04:02:11.365Z,4.13
2022-10-04T04:04:50.530Z,3.08
2022-10-04T04:07:25.089Z,3.50
2022-10-04T04:09:59.689Z,1.90
2022-10-04T04:12:39.748Z,4.82
2022-10-04T04:15:12.055Z,3.85
2022-10-04T04:17:42.617Z,4.38
2022-10-04T04:20:29.023Z,3.13
2022-10-04T04:23:02.044Z,5.25
2022-10-04T04:25:33.283Z,4.55
2022-10-04T04:28:14.775Z,4.30
2022-10-04T04:30:47.541Z,7.35
2022-10-04T04:33:32.640Z,3.03
2022-10-04T04:36:06.489Z,3.60
2022-10-04T04:38:35.577Z,4.75
2022-10-04T04:41:11.171Z,3.25
2022-10-04T04:43:45.164Z,3.25
2022-10-04T04:46:29.454Z,2.83
2022-10-04T04:49:04.004Z,1.52
2022-10-04T04:51:34.385Z,5.35
2022-10-04T04:54:05.080Z,10.32
2022-10-04T04:56:34.270Z,1.77
2022-10-04T04:59:07.652Z,6.10
2022-10-04T05:01:37.488Z,2.80
2022-10-04T05:04:16.243Z,4.70
2022-10-04T05:06:46.998Z,3.80
2022-10-04T05:09:24.803Z,4.70
2022-10-04T05:11:57.386Z,8.30
2022-10-04T05:14:27.425Z,3.45
2022-10-04T05:16:56.741Z,2.83
2022-10-04T05:19:30.647Z,5.55
2022-10-04T05:22:01.165Z,5.38
2022-10-04T05:24:31.823Z,6.22
2022-10-04T05:27:02.949Z,12.23
2022-10-04T05:29:35.700Z,5.00
2022-10-04T05:32:20.737Z,5.63
2022-10-04T05:34:51.613Z,11.57
2022-10-04T05:37:42.888Z,4.82
2022-10-04T05:40:28.902Z,7.40
2022-10-04T05:42:58.454Z,5.40
2022-10-04T05:45:30.119Z,3.42
2022-10-04T05:47:59.930Z,5.68
2022-10-04T05:50:33.321Z,8.20
2022-10-04T05:53:20.745Z,7.63
2022-10-04T05:55:58.384Z,1.92
2022-10-04T05:58:48.334Z,4.88
2022-10-04T06:01:31.562Z,3.50
2022-10-04T06:04:48.560Z,2.15
2022-10-04T06:07:24.474Z,5.07
2022-10-04T06:10:28.261Z,3.97
2022-10-04T06:13:03.471Z,1.13
2022-10-04T06:15:57.656Z,0.65
2022-10-04T06:18:43.460Z,1.58
2022-10-04T06:21:23.660Z,1.27
2022-10-04T06:24:00.536Z,0.70
2022-10-04T06:26:35.783Z,1.95
2022-10-04T06:29:12.218Z,2.17
2022-10-04T06:32:12.210Z,0.70
2022-10-04T06:35:02.139Z,0.80
2022-10-04T06:37:52.545Z,1.13
2022-10-04T06:40:49.744Z,1.70
2022-10-04T06:43:47.322Z,1.65
2022-10-04T06:46:23.334Z,1.95
2022-10-04T06:49:19.399Z,1.77
2022-10-04T06:52:13.505Z,0.98
2022-10-04T06:54:58.198Z,1.30
2022-10-04T06:57:51.262Z,1.35
2022-10-04T07:00:23.183Z,1.45
2022-10-04T07:02:54.936Z,0.90
2022-10-04T07:05:30.734Z,0.28
2022-10-04T07:08:11.131Z,0.73
2022-10-04T07:10:48.400Z,0.20
2022-10-04T07:13:41.653Z,3.08
2022-10-04T07:16:24.659Z,1.38
2022-10-04T07:19:11.244Z,3.03
2022-10-04T07:21:46.752Z,0.47
2022-10-04T07:24:25.810Z,1.17
2022-10-04T07:26:56.301Z,2.35
2022-10-04T07:29:28.269Z,2.90
2022-10-04T07:32:08.650Z,4.38
2022-10-04T07:34:41.512Z,1.25
2022-10-04T07:37:13.017Z,1.15
2022-10-04T07:39:50.553Z,0.70
2022-10-04T07:42:26.570Z,2.63
2022-10-04T07:45:07.264Z,1.75
2022-10-04T07:47:35.517Z,0.50
2022-10-04T07:50:21.698Z,2.03
2022-10-04T07:52:54.895Z,1.52
2022-10-04T07:55:29.939Z,0.82
2022-10-04T07:58:41.029Z,1.55
2022-10-04T08:01:25.065Z,2.80
2022-10-04T08:04:13.053Z,1.77
2022-10-04T08:06:53.647Z,1.95
2022-10-04T08:09:43.462Z,0.75
2022-10-04T08:12:21.758Z,2.38
2022-10-04T08:14:55.922Z,1.05
2022-10-04T08:17:41.829Z,1.48
2022-10-04T08:20:30.636Z,0.47
2022-10-04T08:23:09.099Z,2.03
2022-10-04T08:25:48.229Z,0.77
2022-10-04T08:28:46.339Z,2.28
2022-10-04T08:31:27.690Z,2.58
2022-10-04T08:34:13.497Z,0.90
2022-10-04T08:36:54.785Z,1.80
2022-10-04T08:39:37.332Z,3.47
2022-10-04T08:42:33.246Z,1.98
2022-10-04T08:45:34.907Z,0.85
2022-10-04T08:48:38.783Z,0.38
2022-10-04T08:51:32.043Z,0.93
2022-10-04T08:54:25.559Z,0.43
2022-10-04T08:57:06.534Z,1.05
2022-10-04T09:00:00.208Z,0.52
2022-10-04T09:03:05.675Z,0.55
2022-10-04T09:05:47.782Z,1.25
2022-10-04T09:08:52.804Z,2.33
2022-10-04T09:11:46.936Z,1.20
2022-10-04T09:14:36.032Z,1.27
2022-10-04T09:17:22.490Z,0.65
2022-10-04T09:20:13.947Z,2.45
2022-10-04T09:22:51.513Z,0.22
2022-10-04T09:25:49.412Z,1.48
2022-10-04T09:29:01.148Z,1.08
2022-10-04T09:32:03.015Z,1.05
2022-10-04T09:34:42.774Z,1.02
2022-10-04T09:37:26.268Z,1.77
2022-10-04T09:40:38.006Z,0.30
2022-10-04T09:43:35.152Z,4.00
2022-10-04T09:46:29.795Z,1.23
2022-10-04T09:49:09.515Z,1.25
2022-10-04T09:52:02.972Z,0.50
2022-10-04T09:54:56.961Z,1.08
2022-10-04T09:57:39.324Z,1.08
2022-10-04T10:00:24.946Z,1.00
2022-10-04T10:03:47.407Z,2.53
2022-10-04T10:06:37.568Z,0.40
2022-10-04T10:09:19.764Z,0.95
2022-10-04T10:12:17.496Z,0.57
2022-10-04T10:15:16.989Z,0.82
2022-10-04T10:17:56.349Z,0.38
2022-10-04T10:21:09.855Z,0.60
2022-10-04T10:23:56.928Z,0.75
2022-10-04T10:26:39.593Z,1.25
2022-10-04T10:29:26.256Z,3.53
2022-10-04T10:32:21.453Z,2.38
2022-10-04T10:35:19.259Z,3.08
2022-10-04T10:38:04.837Z,0.77
2022-10-04T10:40:53.997Z,4.15
2022-10-04T10:43:46.663Z,3.17
2022-10-04T10:46:28.639Z,2.72
2022-10-04T10:49:22.367Z,7.68
2022-10-04T10:52:25.665Z,2.42
2022-10-04T10:55:27.025Z,4.40
2022-10-04T10:58:22.889Z,4.55
2022-10-04T11:01:01.444Z,5.60
2022-10-04T11:03:57.286Z,3.80
2022-10-04T11:06:57.130Z,7.47
2022-10-04T11:09:35.427Z,5.40
2022-10-04T11:12:42.863Z,4.88
2022-10-04T11:15:49.856Z,3.55
2022-10-04T11:18:51.355Z,10.80
2022-10-04T11:21:55.788Z,4.88
2022-10-04T11:25:02.087Z,5.90
2022-10-04T11:27:49.680Z,6.68
2022-10-04T11:30:25.234Z,5.43
2022-10-04T11:33:40.777Z,6.88
2022-10-04T11:36:31.191Z,3.47
2022-10-04T11:39:25.465Z,5.32
2022-10-04T11:42:02.469Z,4.50
2022-10-04T11:44:55.390Z,3.20
2022-10-04T11:47:49.720Z,7.32
2022-10-04T11:50:29.815Z,5.88
2022-10-04T11:53:31.173Z,10.02
2022-10-04T11:56:17.509Z,4.53
2022-10-04T11:58:58.502Z,3.97
2022-10-04T12:01:46.959Z,6.05
2022-10-04T12:04:41.738Z,3.97
2022-10-04T12:07:31.579Z,7.18
2022-10-04T12:10:15.009Z,7.80
2022-10-04T12:13:04.268Z,7.20
2022-10-04T12:15:45.541Z,6.45
2022-10-04T12:18:44.287Z,7.95
2022-10-04T12:21:34.914Z,7.05
2022-10-04T12:24:29.258Z,3.42
2022-10-04T12:27:14.711Z,5.35
2022-10-04T12:30:15.734Z,6.75
2022-10-04T12:32:58.419Z,6.07
2022-10-04T12:35:36.868Z,6.45
2022-10-04T12:38:22.501Z,6.78
2022-10-04T12:41:01.235Z,4.88
2022-10-04T12:43:38.485Z,9.55
2022-10-04T12:46:26.418Z,6.65
2022-10-04T12:49:08.532Z,9.80
2022-10-04T12:51:44.465Z,6.13
2022-10-04T12:54:24.871Z,4.55
2022-10-04T12:57:07.702Z,3.65
2022-10-04T12:59:50.392Z,7.00
2022-10-04T13:02:50.221Z,5.20
2022-10-04T13:05:24.733Z,5.90
2022-10-04T13:08:32.555Z,7.15
2022-10-04T13:11:39.818Z,5.47
2022-10-04T13:14:56.131Z,4.18
2022-10-04T13:17:36.692Z,7.05
2022-10-04T13:20:31.294Z,6.18
2022-10-04T13:23:05.327Z,9.13
2022-10-04T13:26:03.959Z,7.80
2022-10-04T13:28:41.293Z,5.65
2022-10-04T13:31:16.909Z,6.53
2022-10-04T13:33:52.592Z,4.18
2022-10-04T13:36:30.602Z,4.85
2022-10-04T13:39:31.492Z,6.78
2022-10-04T13:42:15.203Z,7.07
2022-10-04T13:45:06.092Z,8.55
2022-10-04T13:47:57.084Z,6.30
2022-10-04T13:50:38.789Z,5.07
2022-10-04T13:53:41.507Z,6.07
2022-10-04T13:56:40.097Z,8.15
2022-10-04T13:59:18.697Z,3.25
2022-10-04T14:02:21.273Z,10.68
2022-10-04T14:05:19.026Z,6.53
2022-10-04T14:08:21.510Z,4.95
2022-10-04T14:11:09.291Z,8.38
2022-10-04T14:14:04.312Z,7.22
2022-10-04T14:17:14.161Z,10.10
2022-10-04T14:20:31.404Z,9.77
2022-10-04T14:23:23.450Z,8.90
2022-10-04T14:26:30.173Z,9.02
2022-10-04T14:29:28.958Z,8.00
2022-10-04T14:32:45.894Z,13.98
2022-10-04T14:35:21.965Z,8.77
2022-10-04T14:38:31.750Z,11.15
2022-10-04T14:41:41.454Z,10.95
2022-10-04T14:44:34.880Z,11.13
2022-10-04T14:47:20.025Z,11.38
2022-10-04T14:50:05.274Z,12.00
2022-10-04T14:52:46.727Z,16.58
2022-10-04T14:55:31.299Z,14.63
2022-10-04T14:58:17.500Z,11.38
2022-10-04T15:01:19.112Z,11.07
2022-10-04T15:06:36.820Z,10.75
2022-10-04T15:09:31.038Z,7.30
2022-10-04T15:12:29.644Z,13.43
2022-10-04T15:15:21.323Z,4.75
2022-10-04T15:18:04.216Z,9.95
2022-10-04T15:20:39.143Z,6.28
2022-10-04T15:23:17.109Z,7.50
2022-10-04T15:25:48.156Z,9.25
2022-10-04T15:28:41.960Z,9.90
2022-10-04T15:31:17.486Z,8.43
2022-10-04T15:33:56.628Z,6.95
2022-10-04T15:36:39.777Z,4.47
2022-10-04T15:39:41.241Z,7.72
2022-10-04T15:42:14.891Z,3.35
2022-10-04T15:45:22.884Z,4.88
2022-10-04T15:48:11.402Z,5.03
2022-10-04T15:50:56.061Z,5.40
2022-10-04T15:53:50.924Z,4.80
2022-10-04T15:56:37.667Z,8.45
2022-10-04T15:59:36.428Z,6.88
2022-10-04T16:02:48.747Z,4.15
2022-10-04T16:05:25.516Z,10.05
2022-10-04T16:08:33.406Z,6.47
2022-10-04T16:11:15.089Z,5.55
2022-10-04T16:13:56.984Z,8.82
2022-10-04T16:16:48.474Z,6.53
2022-10-04T16:19:34.483Z,4.07
2022-10-04T16:22:16.429Z,3.72
2022-10-04T16:24:51.468Z,5.78
2022-10-04T16:27:46.246Z,7.50
2022-10-04T16:30:27.036Z,7.35
2022-10-04T16:35:49.358Z,2.25
2022-10-04T16:38:25.794Z,8.88
2022-10-04T16:41:14.519Z,5.13
2022-10-04T16:43:52.955Z,7.28
2022-10-04T16:46:30.999Z,4.78
2022-10-04T16:49:02.380Z,5.20
2022-10-04T16:54:32.379Z,14.32
2022-10-04T16:59:51.433Z,7.22
2022-10-04T17:02:51.665Z,6.07
2022-10-04T17:05:39.508Z,10.32
2022-10-04T17:08:25.920Z,8.07
2022-10-04T17:11:39.453Z,10.93
2022-10-04T17:14:32.193Z,9.68
2022-10-04T17:17:03.276Z,6.10
2022-10-04T17:19:35.578Z,8.35
2022-10-04T17:22:21.847Z,9.75
2022-10-04T17:25:02.178Z,10.05
2022-10-04T17:27:47.219Z,16.20
2022-10-04T17:30:18.943Z,10.50
2022-10-04T17:33:17.900Z,8.63
2022-10-04T17:36:23.185Z,8.65
2022-10-04T17:39:03.398Z,11.90
2022-10-04T17:41:50.747Z,8.70
2022-10-04T17:44:34.395Z,8.00
2022-10-04T17:47:14.102Z,4.55
2022-10-04T17:50:10.992Z,4.20
2022-10-04T17:53:02.753Z,5.07
2022-10-04T17:58:17.110Z,4.32
2022-10-04T18:00:54.057Z,4.80
2022-10-04T18:03:26.828Z,6.88
2022-10-04T18:05:59.397Z,2.80
2022-10-04T18:08:41.488Z,2.40
2022-10-04T18:11:22.125Z,2.88
2022-10-04T18:14:00.792Z,2.37
2022-10-04T18:16:32.107Z,3.20
2022-10-04T18:19:24.456Z,8.65
2022-10-04T18:21:54.447Z,4.95
2022-10-04T18:24:29.521Z,5.50
2022-10-04T18:27:05.136Z,4.40
2022-10-04T18:29:40.128Z,3.70
2022-10-04T18:32:31.798Z,1.67
2022-10-04T18:37:34.746Z,3.00
2022-10-04T18:40:15.212Z,2.13
2022-10-04T18:42:44.967Z,3.40
2022-10-04T18:45:31.542Z,2.92
2022-10-04T18:48:02.576Z,3.78
2022-10-04T18:53:21.555Z,4.13
2022-10-04T18:55:59.708Z,2.42
2022-10-04T18:58:59.349Z,3.53
2022-10-04T19:02:03.707Z,3.75
2022-10-04T19:05:02.240Z,2.55
2022-10-04T19:07:40.153Z,2.30
2022-10-04T19:10:17.944Z,2.72
2022-10-04T19:12:57.879Z,2.53
2022-10-04T19:15:43.005Z,5.03
2022-10-04T19:18:29.334Z,15.05
2022-10-04T19:21:05.294Z,6.22
2022-10-04T19:23:42.483Z,7.38
2022-10-04T19:29:14.820Z,5.38
2022-10-04T19:31:54.037Z,5.93
2022-10-04T19:34:35.630Z,2.50
2022-10-04T19:37:12.923Z,1.48
2022-10-04T19:39:55.315Z,3.80
2022-10-04T19:42:33.534Z,2.63
2022-10-04T19:45:18.895Z,3.83
2022-10-04T19:47:52.975Z,2.80
2022-10-04T19:50:26.241Z,4.00
2022-10-04T19:53:01.379Z,2.13
2022-10-04T19:55:43.255Z,3.08
2022-10-04T19:58:34.075Z,2.75
2022-10-04T20:01:03.602Z,2.90
2022-10-04T20:03:35.476Z,2.17
2022-10-04T20:06:09.580Z,3.97
2022-10-04T20:09:01.832Z,6.60
2022-10-04T20:11:50.402Z,3.92
2022-10-04T20:14:56.067Z,2.10
2022-10-04T20:17:35.555Z,2.20
2022-10-04T20:20:04.669Z,2.35
2022-10-04T20:23:01.316Z,3.08
2022-10-04T20:26:09.095Z,3.20
2022-10-04T20:28:45.798Z,3.83
2022-10-04T20:31:48.515Z,3.67
2022-10-04T20:34:49.912Z,4.07
2022-10-04T20:37:20.138Z,5.97
2022-10-04T20:40:02.525Z,3.80
2022-10-04T20:42:39.911Z,7.00
2022-10-04T20:45:23.961Z,5.70
2022-10-04T20:47:58.257Z,8.65
2022-10-04T20:50:43.658Z,6.63
2022-10-04T20:53:22.001Z,4.05
2022-10-04T20:55:58.901Z,4.30
2022-10-04T20:58:33.163Z,3.92
2022-10-04T21:01:14.302Z,6.68
2022-10-04T21:03:48.173Z,10.75
2022-10-04T21:06:17.537Z,4.97
2022-10-04T21:08:47.256Z,4.35
2022-10-04T21:11:23.036Z,5.50
2022-10-04T21:13:55.887Z,7.75
2022-10-04T21:16:47.566Z,9.35
2022-10-04T21:19:47.711Z,6.60
2022-10-04T21:22:47.694Z,9.85
2022-10-04T21:25:35.800Z,8.43
2022-10-04T21:28:37.401Z,9.05
2022-10-04T21:31:07.177Z,12.27
2022-10-04T21:33:38.787Z,5.43
2022-10-04T21:36:08.500Z,6.20
2022-10-04T21:38:37.873Z,7.20
2022-10-04T21:41:07.230Z,5.68
2022-10-04T21:43:37.124Z,3.80
2022-10-04T21:46:06.148Z,5.35
2022-10-04T21:48:34.617Z,7.70
2022-10-04T21:51:02.896Z,9.18
2022-10-04T21:53:31.239Z,7.10
2022-10-04T21:55:59.441Z,5.95
2022-10-04T21:58:27.544Z,7.35
2022-10-04T22:00:57.109Z,8.13
2022-10-04T22:03:25.196Z,8.90
2022-10-04T22:05:53.314Z,5.50
2022-10-04T22:08:21.439Z,7.22
2022-10-04T22:10:52.229Z,6.75
2022-10-04T22:13:22.302Z,4.68
2022-10-04T22:15:50.466Z,6.30
2022-10-04T22:18:20.102Z,7.53
2022-10-04T22:20:48.175Z,9.55
2022-10-04T22:23:19.642Z,7.97
2022-10-04T22:25:48.222Z,6.68
2022-10-04T22:28:22.080Z,12.93
2022-10-04T22:30:50.814Z,5.40
2022-10-04T22:33:36.184Z,9.73
2022-10-04T22:36:14.531Z,6.90
2022-10-04T22:38:43.915Z,10.88
2022-10-04T22:41:13.577Z,5.57
2022-10-04T22:43:41.963Z,6.53
2022-10-04T22:46:16.201Z,15.70
2022-10-04T22:48:47.224Z,8.40
2022-10-04T22:51:16.513Z,4.80
2022-10-04T22:53:46.152Z,10.75
2022-10-04T22:56:15.196Z,7.20
2022-10-04T22:58:44.129Z,11.65
2022-10-04T23:01:14.075Z,6.32
2022-10-04T23:03:48.455Z,6.88
2022-10-04T23:06:17.222Z,5.05
2022-10-04T23:08:45.809Z,7.72
2022-10-04T23:11:13.986Z,11.05
2022-10-04T23:13:42.117Z,8.27
2022-10-04T23:16:14.551Z,6.25
2022-10-04T23:18:42.835Z,8.25
2022-10-04T23:21:22.803Z,6.80
2022-10-04T23:23:52.996Z,13.25
2022-10-04T23:26:24.880Z,7.68
2022-10-04T23:28:53.449Z,10.57
2022-10-04T23:31:25.075Z,4.90
2022-10-04T23:33:56.151Z,11.43
2022-10-04T23:36:26.197Z,11.73
2022-10-04T23:38:58.285Z,8.65
2022-10-04T23:41:26.985Z,12.63
2022-10-04T23:43:55.398Z,10.77
2022-10-04T23:46:25.097Z,10.35
2022-10-04T23:48:53.421Z,10.85
2022-10-04T23:51:21.817Z,8.60
2022-10-04T23:53:51.785Z,4.93
2022-10-04T23:56:23.111Z,6.40
2022-10-04T23:58:52.856Z,10.13
